sensor_id;sensor_type;location;lat;lon;timestamp;P1;durP1;ratioP1;P2;durP2;ratioP2
47796;SDS011;33558;50.922;14.068;2023-05-07T00:01:12;14.17;;;10.10;;
47796;SDS011;33558;50.922;14.068;2023-05-07T00:03:40;12.90;;;9.63;;
47796;SDS011;33558;50.922;14.068;2023-05-07T00:06:07;14.63;;;9.93;;
47796;SDS011;33558;50.922;14.068;2023-05-07T00:08:33;13.77;;;10.13;;
47796;SDS011;33558;50.922;14.068;2023-05-07T00:11:00;14.90;;;9.93;;
47796;SDS011;33558;50.922;14.068;2023-05-07T00:13:26;16.17;;;11.43;;
47796;SDS011;33558;50.922;14.068;2023-05-07T00:15:55;15.07;;;10.63;;
47796;SDS011;33558;50.922;14.068;2023-05-07T00:18:22;14.70;;;10.53;;
47796;SDS011;33558;50.922;14.068;2023-05-07T00:20:50;14.27;;;9.43;;
47796;SDS011;33558;50.922;14.068;2023-05-07T00:23:16;14.53;;;9.90;;
47796;SDS011;33558;50.922;14.068;2023-05-07T00:25:43;13.33;;;9.10;;
47796;SDS011;33558;50.922;14.068;2023-05-07T00:28:10;12.40;;;8.73;;
47796;SDS011;33558;50.922;14.068;2023-05-07T00:30:36;13.90;;;9.17;;
47796;SDS011;33558;50.922;14.068;2023-05-07T00:33:03;13.50;;;9.57;;
47796;SDS011;33558;50.922;14.068;2023-05-07T00:35:29;14.07;;;10.07;;
47796;SDS011;33558;50.922;14.068;2023-05-07T00:37:58;12.93;;;9.57;;
47796;SDS011;33558;50.922;14.068;2023-05-07T00:40:25;16.47;;;10.33;;
47796;SDS011;33558;50.922;14.068;2023-05-07T00:42:51;14.43;;;10.30;;
47796;SDS011;33558;50.922;14.068;2023-05-07T00:45:23;13.13;;;9.60;;
47796;SDS011;33558;50.922;14.068;2023-05-07T00:47:53;15.50;;;10.70;;
47796;SDS011;33558;50.922;14.068;2023-05-07T00:50:20;16.47;;;11.73;;
47796;SDS011;33558;50.922;14.068;2023-05-07T00:52:47;18.40;;;12.00;;
47796;SDS011;33558;50.922;14.068;2023-05-07T00:55:15;17.37;;;11.80;;
47796;SDS011;33558;50.922;14.068;2023-05-07T00:57:42;19.77;;;12.70;;
47796;SDS011;33558;50.922;14.068;2023-05-07T01:00:09;18.03;;;12.27;;
47796;SDS011;33558;50.922;14.068;2023-05-07T01:02:37;18.90;;;12.33;;
47796;SDS011;33558;50.922;14.068;2023-05-07T01:05:04;19.83;;;13.53;;
47796;SDS011;33558;50.922;14.068;2023-05-07T01:07:32;17.00;;;12.23;;
47796;SDS011;33558;50.922;14.068;2023-05-07T01:09:59;20.37;;;12.57;;
47796;SDS011;33558;50.922;14.068;2023-05-07T01:12:28;16.10;;;11.43;;
47796;SDS011;33558;50.922;14.068;2023-05-07T01:14:56;18.70;;;12.13;;
47796;SDS011;33558;50.922;14.068;2023-05-07T01:17:23;17.67;;;12.03;;
47796;SDS011;33558;50.922;14.068;2023-05-07T01:19:50;17.23;;;12.40;;
47796;SDS011;33558;50.922;14.068;2023-05-07T01:22:23;18.63;;;13.13;;
47796;SDS011;33558;50.922;14.068;2023-05-07T01:24:55;17.73;;;11.57;;
47796;SDS011;33558;50.922;14.068;2023-05-07T01:27:21;17.37;;;10.13;;
47796;SDS011;33558;50.922;14.068;2023-05-07T01:29:50;14.10;;;10.10;;
47796;SDS011;33558;50.922;14.068;2023-05-07T01:32:17;16.73;;;11.13;;
47796;SDS011;33558;50.922;14.068;2023-05-07T01:34:45;14.90;;;10.80;;
47796;SDS011;33558;50.922;14.068;2023-05-07T01:37:12;15.70;;;11.50;;
47796;SDS011;33558;50.922;14.068;2023-05-07T01:39:40;14.60;;;10.63;;
47796;SDS011;33558;50.922;14.068;2023-05-07T01:42:08;15.17;;;10.67;;
47796;SDS011;33558;50.922;14.068;2023-05-07T01:44:35;14.40;;;10.43;;
47796;SDS011;33558;50.922;14.068;2023-05-07T01:47:01;17.13;;;10.03;;
47796;SDS011;33558;50.922;14.068;2023-05-07T01:49:29;15.33;;;10.80;;
47796;SDS011;33558;50.922;14.068;2023-05-07T01:51:55;17.33;;;11.60;;
47796;SDS011;33558;50.922;14.068;2023-05-07T01:54:24;13.93;;;10.50;;
47796;SDS011;33558;50.922;14.068;2023-05-07T01:56:55;15.43;;;11.37;;
47796;SDS011;33558;50.922;14.068;2023-05-07T01:59:22;15.30;;;11.73;;
47796;SDS011;33558;50.922;14.068;2023-05-07T02:01:49;17.17;;;11.60;;
47796;SDS011;33558;50.922;14.068;2023-05-07T02:04:16;14.40;;;9.93;;
47796;SDS011;33558;50.922;14.068;2023-05-07T02:06:43;15.93;;;10.57;;
47796;SDS011;33558;50.922;14.068;2023-05-07T02:09:11;14.50;;;10.20;;
47796;SDS011;33558;50.922;14.068;2023-05-07T02:11:42;14.60;;;9.60;;
47796;SDS011;33558;50.922;14.068;2023-05-07T02:14:10;16.00;;;10.83;;
47796;SDS011;33558;50.922;14.068;2023-05-07T02:16:37;13.77;;;9.77;;
47796;SDS011;33558;50.922;14.068;2023-05-07T02:19:04;11.73;;;9.50;;
47796;SDS011;33558;50.922;14.068;2023-05-07T02:21:30;15.33;;;11.03;;
47796;SDS011;33558;50.922;14.068;2023-05-07T02:23:57;12.87;;;9.40;;
47796;SDS011;33558;50.922;14.068;2023-05-07T02:26:27;14.20;;;10.33;;
47796;SDS011;33558;50.922;14.068;2023-05-07T02:28:53;11.93;;;9.37;;
47796;SDS011;33558;50.922;14.068;2023-05-07T02:31:22;12.97;;;9.83;;
47796;SDS011;33558;50.922;14.068;2023-05-07T02:33:48;14.07;;;10.27;;
47796;SDS011;33558;50.922;14.068;2023-05-07T02:36:15;13.23;;;9.87;;
47796;SDS011;33558;50.922;14.068;2023-05-07T02:38:49;13.47;;;9.60;;
47796;SDS011;33558;50.922;14.068;2023-05-07T02:41:16;12.90;;;9.37;;
47796;SDS011;33558;50.922;14.068;2023-05-07T02:43:42;12.67;;;9.47;;
47796;SDS011;33558;50.922;14.068;2023-05-07T02:46:09;13.50;;;9.57;;
47796;SDS011;33558;50.922;14.068;2023-05-07T02:48:42;13.57;;;9.97;;
47796;SDS011;33558;50.922;14.068;2023-05-07T02:51:08;12.90;;;9.20;;
47796;SDS011;33558;50.922;14.068;2023-05-07T02:53:37;11.43;;;8.43;;
47796;SDS011;33558;50.922;14.068;2023-05-07T02:56:04;11.97;;;8.43;;
47796;SDS011;33558;50.922;14.068;2023-05-07T02:58:32;12.30;;;9.03;;
47796;SDS011;33558;50.922;14.068;2023-05-07T03:01:00;11.50;;;8.57;;
47796;SDS011;33558;50.922;14.068;2023-05-07T03:03:56;13.13;;;9.60;;
47796;SDS011;33558;50.922;14.068;2023-05-07T03:06:23;13.60;;;8.73;;
47796;SDS011;33558;50.922;14.068;2023-05-07T03:08:50;10.70;;;8.10;;
47796;SDS011;33558;50.922;14.068;2023-05-07T03:11:16;12.10;;;9.27;;
47796;SDS011;33558;50.922;14.068;2023-05-07T03:13:43;11.67;;;8.43;;
47796;SDS011;33558;50.922;14.068;2023-05-07T03:16:11;11.77;;;8.90;;
47796;SDS011;33558;50.922;14.068;2023-05-07T03:18:38;10.17;;;7.93;;
47796;SDS011;33558;50.922;14.068;2023-05-07T03:21:06;11.77;;;8.37;;
47796;SDS011;33558;50.922;14.068;2023-05-07T03:23:32;12.63;;;8.47;;
47796;SDS011;33558;50.922;14.068;2023-05-07T03:25:59;10.40;;;7.43;;
47796;SDS011;33558;50.922;14.068;2023-05-07T03:28:26;11.60;;;7.93;;
47796;SDS011;33558;50.922;14.068;2023-05-07T03:30:58;10.03;;;7.10;;
47796;SDS011;33558;50.922;14.068;2023-05-07T03:33:24;10.27;;;8.27;;
47796;SDS011;33558;50.922;14.068;2023-05-07T03:35:52;9.07;;;7.40;;
47796;SDS011;33558;50.922;14.068;2023-05-07T03:38:24;9.17;;;6.77;;
47796;SDS011;33558;50.922;14.068;2023-05-07T03:40:50;9.23;;;6.97;;
47796;SDS011;33558;50.922;14.068;2023-05-07T03:43:17;9.73;;;7.77;;
47796;SDS011;33558;50.922;14.068;2023-05-07T03:45:49;8.90;;;6.70;;
47796;SDS011;33558;50.922;14.068;2023-05-07T03:48:20;11.33;;;7.13;;
47796;SDS011;33558;50.922;14.068;2023-05-07T03:50:49;8.37;;;7.03;;
47796;SDS011;33558;50.922;14.068;2023-05-07T03:53:17;8.40;;;6.50;;
47796;SDS011;33558;50.922;14.068;2023-05-07T03:55:45;8.17;;;5.83;;
47796;SDS011;33558;50.922;14.068;2023-05-07T03:58:14;10.90;;;6.37;;
47796;SDS011;33558;50.922;14.068;2023-05-07T04:00:41;9.90;;;6.67;;
47796;SDS011;33558;50.922;14.068;2023-05-07T04:03:18;9.47;;;6.50;;
47796;SDS011;33558;50.922;14.068;2023-05-07T04:05:45;8.77;;;6.43;;
47796;SDS011;33558;50.922;14.068;2023-05-07T04:08:12;7.33;;;5.93;;
47796;SDS011;33558;50.922;14.068;2023-05-07T04:10:43;7.97;;;6.03;;
47796;SDS011;33558;50.922;14.068;2023-05-07T04:13:11;8.83;;;6.47;;
47796;SDS011;33558;50.922;14.068;2023-05-07T04:15:39;12.60;;;7.03;;
47796;SDS011;33558;50.922;14.068;2023-05-07T04:18:08;10.03;;;6.50;;
47796;SDS011;33558;50.922;14.068;2023-05-07T04:20:37;9.53;;;6.77;;
47796;SDS011;33558;50.922;14.068;2023-05-07T04:23:07;8.73;;;6.13;;
47796;SDS011;33558;50.922;14.068;2023-05-07T04:25:35;8.40;;;6.63;;
47796;SDS011;33558;50.922;14.068;2023-05-07T04:28:18;7.90;;;6.20;;
47796;SDS011;33558;50.922;14.068;2023-05-07T04:30:45;8.03;;;6.23;;
47796;SDS011;33558;50.922;14.068;2023-05-07T04:33:13;6.63;;;4.63;;
47796;SDS011;33558;50.922;14.068;2023-05-07T04:35:42;6.13;;;4.70;;
47796;SDS011;33558;50.922;14.068;2023-05-07T04:38:08;6.83;;;5.37;;
47796;SDS011;33558;50.922;14.068;2023-05-07T04:40:36;7.03;;;4.80;;
47796;SDS011;33558;50.922;14.068;2023-05-07T04:43:07;6.00;;;4.70;;
47796;SDS011;33558;50.922;14.068;2023-05-07T04:45:42;6.87;;;5.07;;
47796;SDS011;33558;50.922;14.068;2023-05-07T04:48:10;6.43;;;4.80;;
47796;SDS011;33558;50.922;14.068;2023-05-07T04:50:39;6.30;;;4.57;;
47796;SDS011;33558;50.922;14.068;2023-05-07T04:53:06;6.10;;;5.00;;
47796;SDS011;33558;50.922;14.068;2023-05-07T04:55:33;5.87;;;4.60;;
47796;SDS011;33558;50.922;14.068;2023-05-07T04:58:06;6.50;;;4.90;;
47796;SDS011;33558;50.922;14.068;2023-05-07T05:00:35;5.53;;;4.50;;
47796;SDS011;33558;50.922;14.068;2023-05-07T05:03:06;6.90;;;4.77;;
47796;SDS011;33558;50.922;14.068;2023-05-07T05:05:33;6.13;;;4.30;;
47796;SDS011;33558;50.922;14.068;2023-05-07T05:08:01;5.97;;;4.30;;
47796;SDS011;33558;50.922;14.068;2023-05-07T05:10:27;6.83;;;4.80;;
47796;SDS011;33558;50.922;14.068;2023-05-07T05:12:55;6.00;;;4.37;;
47796;SDS011;33558;50.922;14.068;2023-05-07T05:15:22;6.00;;;4.40;;
47796;SDS011;33558;50.922;14.068;2023-05-07T05:17:49;7.23;;;4.50;;
47796;SDS011;33558;50.922;14.068;2023-05-07T05:20:18;6.33;;;4.47;;
47796;SDS011;33558;50.922;14.068;2023-05-07T05:22:47;5.63;;;4.07;;
47796;SDS011;33558;50.922;14.068;2023-05-07T05:25:14;5.77;;;3.73;;
47796;SDS011;33558;50.922;14.068;2023-05-07T05:27:41;5.13;;;3.87;;
47796;SDS011;33558;50.922;14.068;2023-05-07T05:30:08;5.40;;;3.90;;
47796;SDS011;33558;50.922;14.068;2023-05-07T05:32:36;6.43;;;5.00;;
47796;SDS011;33558;50.922;14.068;2023-05-07T05:35:04;6.60;;;4.93;;
47796;SDS011;33558;50.922;14.068;2023-05-07T05:37:32;5.33;;;3.97;;
47796;SDS011;33558;50.922;14.068;2023-05-07T05:40:01;6.27;;;4.77;;
47796;SDS011;33558;50.922;14.068;2023-05-07T05:42:29;6.10;;;4.43;;
47796;SDS011;33558;50.922;14.068;2023-05-07T05:44:56;6.63;;;4.53;;
47796;SDS011;33558;50.922;14.068;2023-05-07T05:47:24;6.27;;;4.60;;
47796;SDS011;33558;50.922;14.068;2023-05-07T05:49:53;5.20;;;3.77;;
47796;SDS011;33558;50.922;14.068;2023-05-07T05:52:20;5.40;;;4.00;;
47796;SDS011;33558;50.922;14.068;2023-05-07T05:54:50;5.50;;;4.03;;
47796;SDS011;33558;50.922;14.068;2023-05-07T05:57:18;5.53;;;4.00;;
47796;SDS011;33558;50.922;14.068;2023-05-07T05:59:45;4.67;;;3.80;;
47796;SDS011;33558;50.922;14.068;2023-05-07T06:02:12;6.07;;;3.97;;
47796;SDS011;33558;50.922;14.068;2023-05-07T06:04:40;6.57;;;4.60;;
47796;SDS011;33558;50.922;14.068;2023-05-07T06:07:08;5.53;;;4.13;;
47796;SDS011;33558;50.922;14.068;2023-05-07T06:09:35;5.70;;;4.30;;
47796;SDS011;33558;50.922;14.068;2023-05-07T06:12:03;5.50;;;4.50;;
47796;SDS011;33558;50.922;14.068;2023-05-07T06:14:31;4.57;;;3.43;;
47796;SDS011;33558;50.922;14.068;2023-05-07T06:16:58;6.57;;;3.43;;
47796;SDS011;33558;50.922;14.068;2023-05-07T06:19:25;4.63;;;3.90;;
47796;SDS011;33558;50.922;14.068;2023-05-07T06:21:54;6.67;;;4.57;;
47796;SDS011;33558;50.922;14.068;2023-05-07T06:24:22;5.30;;;4.37;;
47796;SDS011;33558;50.922;14.068;2023-05-07T06:26:50;5.03;;;3.40;;
47796;SDS011;33558;50.922;14.068;2023-05-07T06:29:18;5.03;;;3.60;;
47796;SDS011;33558;50.922;14.068;2023-05-07T06:31:45;5.73;;;4.30;;
47796;SDS011;33558;50.922;14.068;2023-05-07T06:34:11;5.40;;;4.27;;
47796;SDS011;33558;50.922;14.068;2023-05-07T06:36:40;6.20;;;4.23;;
47796;SDS011;33558;50.922;14.068;2023-05-07T06:39:15;6.30;;;4.43;;
47796;SDS011;33558;50.922;14.068;2023-05-07T06:41:42;5.53;;;4.13;;
47796;SDS011;33558;50.922;14.068;2023-05-07T06:44:21;6.43;;;4.67;;
47796;SDS011;33558;50.922;14.068;2023-05-07T06:46:58;5.63;;;4.40;;
47796;SDS011;33558;50.922;14.068;2023-05-07T06:49:26;6.47;;;4.37;;
47796;SDS011;33558;50.922;14.068;2023-05-07T06:51:52;7.27;;;5.07;;
47796;SDS011;33558;50.922;14.068;2023-05-07T06:54:20;6.23;;;4.70;;
47796;SDS011;33558;50.922;14.068;2023-05-07T06:56:47;6.33;;;4.87;;
47796;SDS011;33558;50.922;14.068;2023-05-07T06:59:14;7.30;;;5.47;;
47796;SDS011;33558;50.922;14.068;2023-05-07T07:01:42;6.67;;;5.20;;
47796;SDS011;33558;50.922;14.068;2023-05-07T07:04:10;6.00;;;4.37;;
47796;SDS011;33558;50.922;14.068;2023-05-07T07:06:39;5.03;;;4.27;;
47796;SDS011;33558;50.922;14.068;2023-05-07T07:09:10;6.37;;;4.53;;
47796;SDS011;33558;50.922;14.068;2023-05-07T07:11:37;6.03;;;4.77;;
47796;SDS011;33558;50.922;14.068;2023-05-07T07:14:05;6.67;;;4.20;;
47796;SDS011;33558;50.922;14.068;2023-05-07T07:16:36;8.20;;;4.60;;
47796;SDS011;33558;50.922;14.068;2023-05-07T07:19:04;7.30;;;4.83;;
47796;SDS011;33558;50.922;14.068;2023-05-07T07:21:31;5.88;;;4.28;;
47796;SDS011;33558;50.922;14.068;2023-05-07T07:23:58;5.95;;;3.83;;
47796;SDS011;33558;50.922;14.068;2023-05-07T07:26:25;4.17;;;3.50;;
47796;SDS011;33558;50.922;14.068;2023-05-07T07:28:53;3.97;;;3.47;;
47796;SDS011;33558;50.922;14.068;2023-05-07T07:31:22;4.87;;;3.50;;
47796;SDS011;33558;50.922;14.068;2023-05-07T07:33:50;4.30;;;3.57;;
47796;SDS011;33558;50.922;14.068;2023-05-07T07:36:18;4.53;;;3.20;;
47796;SDS011;33558;50.922;14.068;2023-05-07T07:38:45;3.80;;;3.17;;
47796;SDS011;33558;50.922;14.068;2023-05-07T07:41:13;3.80;;;3.13;;
47796;SDS011;33558;50.922;14.068;2023-05-07T07:43:40;4.90;;;3.60;;
47796;SDS011;33558;50.922;14.068;2023-05-07T07:46:07;4.40;;;3.17;;
47796;SDS011;33558;50.922;14.068;2023-05-07T07:48:34;4.13;;;2.93;;
47796;SDS011;33558;50.922;14.068;2023-05-07T07:51:01;3.50;;;2.97;;
47796;SDS011;33558;50.922;14.068;2023-05-07T07:53:30;3.97;;;3.03;;
47796;SDS011;33558;50.922;14.068;2023-05-07T07:55:57;4.47;;;3.47;;
47796;SDS011;33558;50.922;14.068;2023-05-07T07:58:27;5.50;;;2.80;;
47796;SDS011;33558;50.922;14.068;2023-05-07T08:00:54;4.37;;;2.93;;
47796;SDS011;33558;50.922;14.068;2023-05-07T08:03:22;3.50;;;3.20;;
47796;SDS011;33558;50.922;14.068;2023-05-07T08:05:53;3.47;;;3.00;;
47796;SDS011;33558;50.922;14.068;2023-05-07T08:08:21;3.80;;;3.40;;
47796;SDS011;33558;50.922;14.068;2023-05-07T08:10:50;3.77;;;2.67;;
47796;SDS011;33558;50.922;14.068;2023-05-07T08:13:25;3.97;;;2.97;;
47796;SDS011;33558;50.922;14.068;2023-05-07T08:15:53;4.43;;;3.00;;
47796;SDS011;33558;50.922;14.068;2023-05-07T08:18:21;3.50;;;3.00;;
47796;SDS011;33558;50.922;14.068;2023-05-07T08:20:53;3.43;;;3.10;;
47796;SDS011;33558;50.922;14.068;2023-05-07T08:23:25;4.67;;;3.33;;
47796;SDS011;33558;50.922;14.068;2023-05-07T08:25:54;5.03;;;3.20;;
47796;SDS011;33558;50.922;14.068;2023-05-07T08:28:21;4.60;;;3.93;;
47796;SDS011;33558;50.922;14.068;2023-05-07T08:30:50;5.10;;;3.43;;
47796;SDS011;33558;50.922;14.068;2023-05-07T08:33:17;4.10;;;3.40;;
47796;SDS011;33558;50.922;14.068;2023-05-07T08:35:44;4.93;;;3.63;;
47796;SDS011;33558;50.922;14.068;2023-05-07T08:38:12;5.57;;;4.20;;
47796;SDS011;33558;50.922;14.068;2023-05-07T08:40:39;6.10;;;4.60;;
47796;SDS011;33558;50.922;14.068;2023-05-07T08:43:13;5.73;;;4.47;;
47796;SDS011;33558;50.922;14.068;2023-05-07T08:45:42;5.57;;;4.53;;
47796;SDS011;33558;50.922;14.068;2023-05-07T08:48:14;4.93;;;4.10;;
47796;SDS011;33558;50.922;14.068;2023-05-07T08:50:44;5.07;;;4.33;;
47796;SDS011;33558;50.922;14.068;2023-05-07T08:53:11;4.83;;;4.10;;
47796;SDS011;33558;50.922;14.068;2023-05-07T08:55:39;7.47;;;4.47;;
47796;SDS011;33558;50.922;14.068;2023-05-07T08:58:07;5.03;;;4.07;;
47796;SDS011;33558;50.922;14.068;2023-05-07T09:00:38;5.72;;;4.32;;
47796;SDS011;33558;50.922;14.068;2023-05-07T09:03:06;4.93;;;4.30;;
47796;SDS011;33558;50.922;14.068;2023-05-07T09:05:35;5.43;;;3.70;;
47796;SDS011;33558;50.922;14.068;2023-05-07T09:08:06;5.53;;;4.10;;
47796;SDS011;33558;50.922;14.068;2023-05-07T09:10:33;4.85;;;3.60;;
47796;SDS011;33558;50.922;14.068;2023-05-07T09:13:06;4.32;;;3.58;;
47796;SDS011;33558;50.922;14.068;2023-05-07T09:15:34;5.05;;;3.63;;
47796;SDS011;33558;50.922;14.068;2023-05-07T09:18:03;4.28;;;3.55;;
47796;SDS011;33558;50.922;14.068;2023-05-07T09:20:33;5.20;;;3.75;;
47796;SDS011;33558;50.922;14.068;2023-05-07T09:23:01;4.40;;;4.00;;
47796;SDS011;33558;50.922;14.068;2023-05-07T09:25:29;5.00;;;3.80;;
47796;SDS011;33558;50.922;14.068;2023-05-07T09:28:00;4.55;;;3.70;;
47796;SDS011;33558;50.922;14.068;2023-05-07T09:30:29;5.80;;;4.10;;
47796;SDS011;33558;50.922;14.068;2023-05-07T09:32:59;4.18;;;3.60;;
47796;SDS011;33558;50.922;14.068;2023-05-07T09:35:29;3.97;;;3.30;;
47796;SDS011;33558;50.922;14.068;2023-05-07T09:38:01;3.58;;;3.05;;
47796;SDS011;33558;50.922;14.068;2023-05-07T09:40:30;4.10;;;3.70;;
47796;SDS011;33558;50.922;14.068;2023-05-07T09:43:08;3.67;;;3.30;;
47796;SDS011;33558;50.922;14.068;2023-05-07T09:50:55;3.47;;;3.15;;
47796;SDS011;33558;50.922;14.068;2023-05-07T09:53:27;4.57;;;3.70;;
47796;SDS011;33558;50.922;14.068;2023-05-07T09:55:57;4.10;;;3.50;;
47796;SDS011;33558;50.922;14.068;2023-05-07T09:58:24;5.18;;;3.97;;
47796;SDS011;33558;50.922;14.068;2023-05-07T10:00:53;4.35;;;3.72;;
47796;SDS011;33558;50.922;14.068;2023-05-07T10:03:21;4.40;;;3.80;;
47796;SDS011;33558;50.922;14.068;2023-05-07T10:05:55;4.30;;;3.72;;
47796;SDS011;33558;50.922;14.068;2023-05-07T10:08:24;3.95;;;3.55;;
47796;SDS011;33558;50.922;14.068;2023-05-07T10:10:56;4.35;;;3.72;;
47796;SDS011;33558;50.922;14.068;2023-05-07T10:13:25;4.10;;;3.53;;
47796;SDS011;33558;50.922;14.068;2023-05-07T10:15:55;4.25;;;3.38;;
47796;SDS011;33558;50.922;14.068;2023-05-07T10:18:26;5.35;;;4.00;;
47796;SDS011;33558;50.922;14.068;2023-05-07T10:21:03;4.45;;;3.75;;
47796;SDS011;33558;50.922;14.068;2023-05-07T10:23:34;4.57;;;3.90;;
47796;SDS011;33558;50.922;14.068;2023-05-07T10:26:03;4.40;;;3.65;;
47796;SDS011;33558;50.922;14.068;2023-05-07T10:28:33;4.45;;;3.70;;
47796;SDS011;33558;50.922;14.068;2023-05-07T10:31:13;5.97;;;4.07;;
47796;SDS011;33558;50.922;14.068;2023-05-07T10:33:46;4.20;;;3.80;;
47796;SDS011;33558;50.922;14.068;2023-05-07T10:57:45;4.75;;;4.25;;
47796;SDS011;33558;50.922;14.068;2023-05-07T11:03:17;4.70;;;4.05;;
47796;SDS011;33558;50.922;14.068;2023-05-07T11:06:08;4.20;;;3.78;;
47796;SDS011;33558;50.922;14.068;2023-05-07T11:08:55;6.95;;;4.53;;
47796;SDS011;33558;50.922;14.068;2023-05-07T11:11:44;5.30;;;4.80;;
47796;SDS011;33558;50.922;14.068;2023-05-07T11:14:18;6.30;;;4.85;;
47796;SDS011;33558;50.922;14.068;2023-05-07T11:17:19;4.50;;;4.10;;
47796;SDS011;33558;50.922;14.068;2023-05-07T11:19:53;4.93;;;4.43;;
47796;SDS011;33558;50.922;14.068;2023-05-07T11:22:36;5.18;;;4.15;;
47796;SDS011;33558;50.922;14.068;2023-05-07T11:25:19;4.63;;;4.13;;
47796;SDS011;33558;50.922;14.068;2023-05-07T11:27:52;5.18;;;4.68;;
47796;SDS011;33558;50.922;14.068;2023-05-07T11:30:21;4.65;;;4.20;;
47796;SDS011;33558;50.922;14.068;2023-05-07T11:32:48;5.40;;;4.57;;
47796;SDS011;33558;50.922;14.068;2023-05-07T11:35:17;5.28;;;4.78;;
47796;SDS011;33558;50.922;14.068;2023-05-07T11:37:47;5.22;;;4.70;;
47796;SDS011;33558;50.922;14.068;2023-05-07T11:40:16;4.63;;;4.13;;
47796;SDS011;33558;50.922;14.068;2023-05-07T11:42:48;5.00;;;4.50;;
47796;SDS011;33558;50.922;14.068;2023-05-07T11:45:22;4.75;;;4.30;;
47796;SDS011;33558;50.922;14.068;2023-05-07T11:47:51;5.93;;;4.68;;
47796;SDS011;33558;50.922;14.068;2023-05-07T11:50:18;5.50;;;4.70;;
47796;SDS011;33558;50.922;14.068;2023-05-07T11:52:49;4.93;;;4.38;;
47796;SDS011;33558;50.922;14.068;2023-05-07T11:55:17;5.60;;;3.90;;
47796;SDS011;33558;50.922;14.068;2023-05-07T11:57:44;4.25;;;3.85;;
47796;SDS011;33558;50.922;14.068;2023-05-07T12:00:11;5.57;;;4.60;;
47796;SDS011;33558;50.922;14.068;2023-05-07T12:02:43;4.93;;;4.25;;
47796;SDS011;33558;50.922;14.068;2023-05-07T12:05:09;4.65;;;3.97;;
47796;SDS011;33558;50.922;14.068;2023-05-07T12:07:36;4.22;;;3.80;;
47796;SDS011;33558;50.922;14.068;2023-05-07T12:10:06;4.53;;;3.95;;
47796;SDS011;33558;50.922;14.068;2023-05-07T12:12:37;6.90;;;4.95;;
47796;SDS011;33558;50.922;14.068;2023-05-07T12:15:05;5.38;;;4.88;;
47796;SDS011;33558;50.922;14.068;2023-05-07T12:17:32;5.30;;;4.65;;
47796;SDS011;33558;50.922;14.068;2023-05-07T12:20:03;4.75;;;4.20;;
47796;SDS011;33558;50.922;14.068;2023-05-07T12:22:32;5.10;;;4.60;;
47796;SDS011;33558;50.922;14.068;2023-05-07T12:25:00;5.53;;;4.82;;
47796;SDS011;33558;50.922;14.068;2023-05-07T12:27:28;5.28;;;4.78;;
47796;SDS011;33558;50.922;14.068;2023-05-07T12:29:56;5.60;;;5.00;;
47796;SDS011;33558;50.922;14.068;2023-05-07T12:32:24;6.00;;;5.40;;
47796;SDS011;33558;50.922;14.068;2023-05-07T12:34:53;6.78;;;4.35;;
47796;SDS011;33558;50.922;14.068;2023-05-07T12:37:24;7.13;;;4.40;;
47796;SDS011;33558;50.922;14.068;2023-05-07T12:40:03;5.50;;;4.57;;
47796;SDS011;33558;50.922;14.068;2023-05-07T12:42:32;5.22;;;4.35;;
47796;SDS011;33558;50.922;14.068;2023-05-07T12:44:59;4.88;;;4.38;;
47796;SDS011;33558;50.922;14.068;2023-05-07T12:47:27;5.20;;;4.05;;
47796;SDS011;33558;50.922;14.068;2023-05-07T12:49:54;4.90;;;4.40;;
47796;SDS011;33558;50.922;14.068;2023-05-07T12:52:22;6.47;;;4.20;;
47796;SDS011;33558;50.922;14.068;2023-05-07T12:54:50;4.50;;;3.80;;
47796;SDS011;33558;50.922;14.068;2023-05-07T12:57:19;4.63;;;3.90;;
47796;SDS011;33558;50.922;14.068;2023-05-07T12:59:46;4.40;;;3.83;;
47796;SDS011;33558;50.922;14.068;2023-05-07T13:02:13;4.25;;;3.63;;
47796;SDS011;33558;50.922;14.068;2023-05-07T13:04:41;4.05;;;3.63;;
47796;SDS011;33558;50.922;14.068;2023-05-07T13:07:08;5.30;;;4.03;;
47796;SDS011;33558;50.922;14.068;2023-05-07T13:09:35;3.70;;;3.30;;
47796;SDS011;33558;50.922;14.068;2023-05-07T13:12:05;7.50;;;3.75;;
47796;SDS011;33558;50.922;14.068;2023-05-07T13:14:32;4.20;;;3.72;;
47796;SDS011;33558;50.922;14.068;2023-05-07T13:17:00;4.43;;;3.83;;
47796;SDS011;33558;50.922;14.068;2023-05-07T13:19:27;3.88;;;3.40;;
47796;SDS011;33558;50.922;14.068;2023-05-07T13:21:55;3.65;;;3.25;;
47796;SDS011;33558;50.922;14.068;2023-05-07T13:24:23;4.75;;;3.40;;
47796;SDS011;33558;50.922;14.068;2023-05-07T13:26:50;3.70;;;3.30;;
47796;SDS011;33558;50.922;14.068;2023-05-07T13:29:18;4.25;;;3.25;;
47796;SDS011;33558;50.922;14.068;2023-05-07T13:31:46;3.47;;;3.17;;
47796;SDS011;33558;50.922;14.068;2023-05-07T13:34:13;3.35;;;3.05;;
47796;SDS011;33558;50.922;14.068;2023-05-07T13:36:40;3.65;;;3.25;;
47796;SDS011;33558;50.922;14.068;2023-05-07T13:39:07;3.92;;;3.38;;
47796;SDS011;33558;50.922;14.068;2023-05-07T13:41:34;3.13;;;2.83;;
47796;SDS011;33558;50.922;14.068;2023-05-07T13:44:02;3.33;;;3.03;;
47796;SDS011;33558;50.922;14.068;2023-05-07T13:46:30;3.63;;;3.33;;
47796;SDS011;33558;50.922;14.068;2023-05-07T13:48:57;4.18;;;3.10;;
47796;SDS011;33558;50.922;14.068;2023-05-07T13:51:25;3.63;;;2.83;;
47796;SDS011;33558;50.922;14.068;2023-05-07T13:53:52;3.38;;;3.00;;
47796;SDS011;33558;50.922;14.068;2023-05-07T13:56:19;3.60;;;2.90;;
47796;SDS011;33558;50.922;14.068;2023-05-07T13:58:47;4.43;;;2.90;;
47796;SDS011;33558;50.922;14.068;2023-05-07T14:01:14;4.43;;;3.05;;
47796;SDS011;33558;50.922;14.068;2023-05-07T14:03:42;3.30;;;2.72;;
47796;SDS011;33558;50.922;14.068;2023-05-07T14:06:10;3.30;;;3.00;;
47796;SDS011;33558;50.922;14.068;2023-05-07T14:08:36;4.10;;;3.03;;
47796;SDS011;33558;50.922;14.068;2023-05-07T14:11:04;3.50;;;2.90;;
47796;SDS011;33558;50.922;14.068;2023-05-07T14:13:34;2.88;;;2.53;;
47796;SDS011;33558;50.922;14.068;2023-05-07T14:16:02;3.25;;;2.70;;
47796;SDS011;33558;50.922;14.068;2023-05-07T14:18:30;4.35;;;2.97;;
47796;SDS011;33558;50.922;14.068;2023-05-07T14:21:00;2.88;;;2.55;;
47796;SDS011;33558;50.922;14.068;2023-05-07T14:23:33;3.05;;;2.60;;
47796;SDS011;33558;50.922;14.068;2023-05-07T14:26:00;3.00;;;2.58;;
47796;SDS011;33558;50.922;14.068;2023-05-07T14:28:27;2.63;;;2.28;;
47796;SDS011;33558;50.922;14.068;2023-05-07T14:30:56;2.85;;;2.40;;
47796;SDS011;33558;50.922;14.068;2023-05-07T14:33:23;2.88;;;2.40;;
47796;SDS011;33558;50.922;14.068;2023-05-07T14:35:51;4.65;;;2.50;;
47796;SDS011;33558;50.922;14.068;2023-05-07T14:38:20;2.65;;;2.28;;
47796;SDS011;33558;50.922;14.068;2023-05-07T14:40:47;2.88;;;2.38;;
47796;SDS011;33558;50.922;14.068;2023-05-07T14:43:15;4.47;;;2.67;;
47796;SDS011;33558;50.922;14.068;2023-05-07T14:45:41;3.05;;;2.35;;
47796;SDS011;33558;50.922;14.068;2023-05-07T14:48:08;4.18;;;2.20;;
47796;SDS011;33558;50.922;14.068;2023-05-07T14:50:40;3.97;;;2.40;;
47796;SDS011;33558;50.922;14.068;2023-05-07T14:53:07;3.13;;;2.65;;
47796;SDS011;33558;50.922;14.068;2023-05-07T14:55:36;3.42;;;2.20;;
47796;SDS011;33558;50.922;14.068;2023-05-07T14:58:10;3.90;;;2.47;;
47796;SDS011;33558;50.922;14.068;2023-05-07T15:00:37;3.33;;;2.90;;
47796;SDS011;33558;50.922;14.068;2023-05-07T15:03:06;3.15;;;2.85;;
47796;SDS011;33558;50.922;14.068;2023-05-07T15:05:35;3.03;;;2.45;;
47796;SDS011;33558;50.922;14.068;2023-05-07T15:08:03;3.85;;;2.97;;